sensor_id;sensor_type;location;lat;lon;timestamp;pressure;altitude;pressure_sealevel;temperature;humidity
62926;BME280;55732;52.248;-0.844;2022-09-17T00:01:16;101390.58;;;8.51;59.34
62926;BME280;55732;52.248;-0.844;2022-09-17T00:03:42;101393.34;;;8.48;59.15
62926;BME280;55732;52.248;-0.844;2022-09-17T00:06:10;101395.39;;;8.46;59.36
62926;BME280;55732;52.248;-0.844;2022-09-17T00:08:39;101391.31;;;8.45;59.43
62926;BME280;55732;52.248;-0.844;2022-09-17T00:11:10;101390.64;;;8.45;59.43
62926;BME280;55732;52.248;-0.844;2022-09-17T00:13:36;101384.50;;;8.46;59.55
62926;BME280;55732;52.248;-0.844;2022-09-17T00:16:02;101391.19;;;8.46;59.65
62926;BME280;55732;52.248;-0.844;2022-09-17T00:18:28;101396.06;;;8.44;59.57
62926;BME280;55732;52.248;-0.844;2022-09-17T00:20:53;101397.29;;;8.45;59.81
62926;BME280;55732;52.248;-0.844;2022-09-17T00:23:18;101378.27;;;8.41;59.78
62926;BME280;55732;52.248;-0.844;2022-09-17T00:25:45;101384.45;;;8.43;59.89
62926;BME280;55732;52.248;-0.844;2022-09-17T00:28:11;101389.17;;;8.43;59.91
62926;BME280;55732;52.248;-0.844;2022-09-17T00:30:42;101400.33;;;8.40;59.67
62926;BME280;55732;52.248;-0.844;2022-09-17T00:33:11;101401.30;;;8.35;59.86
62926;BME280;55732;52.248;-0.844;2022-09-17T00:35:37;101400.48;;;8.30;60.05
62926;BME280;55732;52.248;-0.844;2022-09-17T00:38:02;101402.05;;;8.30;60.35
62926;BME280;55732;52.248;-0.844;2022-09-17T00:40:28;101400.89;;;8.32;60.33
62926;BME280;55732;52.248;-0.844;2022-09-17T00:42:53;101399.63;;;8.31;60.51
62926;BME280;55732;52.248;-0.844;2022-09-17T00:45:19;101398.89;;;8.30;60.52
62926;BME280;55732;52.248;-0.844;2022-09-17T00:47:49;101400.61;;;8.29;60.75
62926;BME280;55732;52.248;-0.844;2022-09-17T00:50:20;101399.36;;;8.28;60.75
62926;BME280;55732;52.248;-0.844;2022-09-17T00:52:52;101404.61;;;8.27;60.79
62926;BME280;55732;52.248;-0.844;2022-09-17T00:57:55;101403.02;;;8.26;60.78
62926;BME280;55732;52.248;-0.844;2022-09-17T01:00:23;101399.30;;;8.24;61.05
62926;BME280;55732;52.248;-0.844;2022-09-17T01:02:48;101399.79;;;8.23;61.16
62926;BME280;55732;52.248;-0.844;2022-09-17T01:05:15;101400.66;;;8.22;61.15
62926;BME280;55732;52.248;-0.844;2022-09-17T01:08:05;101396.04;;;8.20;61.17
62926;BME280;55732;52.248;-0.844;2022-09-17T01:11:02;101397.54;;;8.17;61.30
62926;BME280;55732;52.248;-0.844;2022-09-17T01:14:11;101403.60;;;8.13;61.45
62926;BME280;55732;52.248;-0.844;2022-09-17T01:17:04;101398.27;;;8.09;61.63
62926;BME280;55732;52.248;-0.844;2022-09-17T01:19:46;101397.18;;;8.08;61.78
62926;BME280;55732;52.248;-0.844;2022-09-17T01:38:46;101403.33;;;7.85;62.28
62926;BME280;55732;52.248;-0.844;2022-09-17T01:44:16;101393.38;;;7.80;62.54
62926;BME280;55732;52.248;-0.844;2022-09-17T01:46:50;101395.05;;;7.76;62.23
62926;BME280;55732;52.248;-0.844;2022-09-17T01:49:18;101398.08;;;7.70;62.28
62926;BME280;55732;52.248;-0.844;2022-09-17T01:51:47;101405.29;;;7.64;62.36
62926;BME280;55732;52.248;-0.844;2022-09-17T01:56:55;101408.59;;;7.55;62.80
62926;BME280;55732;52.248;-0.844;2022-09-17T01:59:26;101406.80;;;7.53;63.07
62926;BME280;55732;52.248;-0.844;2022-09-17T02:02:03;101400.84;;;7.53;62.91
62926;BME280;55732;52.248;-0.844;2022-09-17T02:07:50;101397.07;;;7.50;63.19
62926;BME280;55732;52.248;-0.844;2022-09-17T02:10:19;101397.87;;;7.47;63.12
62926;BME280;55732;52.248;-0.844;2022-09-17T02:12:58;101401.81;;;7.44;63.22
62926;BME280;55732;52.248;-0.844;2022-09-17T02:15:33;101401.45;;;7.43;63.44
62926;BME280;55732;52.248;-0.844;2022-09-17T02:18:12;101399.89;;;7.44;63.46
62926;BME280;55732;52.248;-0.844;2022-09-17T02:20:45;101397.95;;;7.44;63.36
62926;BME280;55732;52.248;-0.844;2022-09-17T02:23:20;101401.63;;;7.43;63.52
62926;BME280;55732;52.248;-0.844;2022-09-17T02:26:03;101400.09;;;7.45;63.67
62926;BME280;55732;52.248;-0.844;2022-09-17T02:28:45;101399.27;;;7.47;63.79
62926;BME280;55732;52.248;-0.844;2022-09-17T02:31:12;101398.61;;;7.49;63.88
62926;BME280;55732;52.248;-0.844;2022-09-17T02:33:40;101391.40;;;7.48;63.85
62926;BME280;55732;52.248;-0.844;2022-09-17T02:36:06;101390.80;;;7.45;63.96
62926;BME280;55732;52.248;-0.844;2022-09-17T02:38:32;101390.61;;;7.44;63.90
62926;BME280;55732;52.248;-0.844;2022-09-17T02:41:19;101387.98;;;7.44;63.91
62926;BME280;55732;52.248;-0.844;2022-09-17T02:43:53;101386.77;;;7.45;64.04
62926;BME280;55732;52.248;-0.844;2022-09-17T02:52:16;101402.51;;;7.43;64.16
62926;BME280;55732;52.248;-0.844;2022-09-17T02:57:34;101404.06;;;7.42;64.13
62926;BME280;55732;52.248;-0.844;2022-09-17T03:02:49;101403.97;;;7.39;64.25
62926;BME280;55732;52.248;-0.844;2022-09-17T03:05:18;101403.77;;;7.38;64.46
62926;BME280;55732;52.248;-0.844;2022-09-17T03:07:44;101405.01;;;7.38;64.39
62926;BME280;55732;52.248;-0.844;2022-09-17T03:10:10;101407.12;;;7.39;64.30
62926;BME280;55732;52.248;-0.844;2022-09-17T03:12:38;101406.61;;;7.39;64.48
62926;BME280;55732;52.248;-0.844;2022-09-17T03:15:04;101403.30;;;7.40;64.58
62926;BME280;55732;52.248;-0.844;2022-09-17T03:17:30;101405.80;;;7.41;64.56
62926;BME280;55732;52.248;-0.844;2022-09-17T03:19:55;101405.30;;;7.43;64.33
62926;BME280;55732;52.248;-0.844;2022-09-17T03:22:21;101407.98;;;7.46;64.49
62926;BME280;55732;52.248;-0.844;2022-09-17T03:24:46;101409.60;;;7.47;64.54
62926;BME280;55732;52.248;-0.844;2022-09-17T03:27:12;101411.89;;;7.47;64.69
62926;BME280;55732;52.248;-0.844;2022-09-17T03:29:38;101407.67;;;7.47;64.62
62926;BME280;55732;52.248;-0.844;2022-09-17T03:32:03;101407.16;;;7.48;64.69
62926;BME280;55732;52.248;-0.844;2022-09-17T03:34:29;101406.16;;;7.49;64.83
62926;BME280;55732;52.248;-0.844;2022-09-17T03:36:55;101407.96;;;7.51;64.74
62926;BME280;55732;52.248;-0.844;2022-09-17T03:39:20;101408.91;;;7.54;65.01
62926;BME280;55732;52.248;-0.844;2022-09-17T03:41:45;101398.56;;;7.54;64.87
62926;BME280;55732;52.248;-0.844;2022-09-17T03:44:11;101407.02;;;7.63;65.11
62926;BME280;55732;52.248;-0.844;2022-09-17T03:46:36;101405.89;;;7.68;65.17
62926;BME280;55732;52.248;-0.844;2022-09-17T03:49:02;101408.62;;;7.71;65.13
62926;BME280;55732;52.248;-0.844;2022-09-17T03:51:28;101412.54;;;7.74;65.33
62926;BME280;55732;52.248;-0.844;2022-09-17T03:53:53;101412.43;;;7.77;65.31
62926;BME280;55732;52.248;-0.844;2022-09-17T03:56:19;101409.52;;;7.80;65.32
62926;BME280;55732;52.248;-0.844;2022-09-17T03:58:44;101411.86;;;7.83;65.25
62926;BME280;55732;52.248;-0.844;2022-09-17T04:01:10;101405.95;;;7.84;65.18
62926;BME280;55732;52.248;-0.844;2022-09-17T04:03:35;101411.23;;;7.85;65.09
62926;BME280;55732;52.248;-0.844;2022-09-17T04:06:01;101413.48;;;7.84;65.11
62926;BME280;55732;52.248;-0.844;2022-09-17T04:08:26;101413.77;;;7.81;65.35
62926;BME280;55732;52.248;-0.844;2022-09-17T04:10:52;101410.73;;;7.79;65.25
62926;BME280;55732;52.248;-0.844;2022-09-17T04:13:18;101413.13;;;7.76;65.38
62926;BME280;55732;52.248;-0.844;2022-09-17T04:15:45;101412.36;;;7.74;65.60
62926;BME280;55732;52.248;-0.844;2022-09-17T04:18:11;101415.46;;;7.72;65.65
62926;BME280;55732;52.248;-0.844;2022-09-17T04:20:37;101415.75;;;7.70;65.78
62926;BME280;55732;52.248;-0.844;2022-09-17T04:23:03;101417.63;;;7.68;65.78
62926;BME280;55732;52.248;-0.844;2022-09-17T04:25:29;101421.48;;;7.67;65.81
62926;BME280;55732;52.248;-0.844;2022-09-17T04:27:55;101422.14;;;7.65;65.76
62926;BME280;55732;52.248;-0.844;2022-09-17T04:30:20;101419.60;;;7.61;65.89
62926;BME280;55732;52.248;-0.844;2022-09-17T04:32:46;101417.99;;;7.60;65.98
62926;BME280;55732;52.248;-0.844;2022-09-17T04:35:12;101418.08;;;7.57;66.04
62926;BME280;55732;52.248;-0.844;2022-09-17T04:37:38;101414.19;;;7.55;66.19
62926;BME280;55732;52.248;-0.844;2022-09-17T04:40:04;101414.52;;;7.53;66.30
62926;BME280;55732;52.248;-0.844;2022-09-17T04:42:30;101416.02;;;7.51;66.37
62926;BME280;55732;52.248;-0.844;2022-09-17T04:44:55;101413.15;;;7.49;66.36
62926;BME280;55732;52.248;-0.844;2022-09-17T04:47:22;101418.71;;;7.47;66.48
62926;BME280;55732;52.248;-0.844;2022-09-17T04:49:47;101419.43;;;7.48;66.70
62926;BME280;55732;52.248;-0.844;2022-09-17T04:52:13;101420.48;;;7.48;66.65
62926;BME280;55732;52.248;-0.844;2022-09-17T04:54:39;101423.27;;;7.47;66.69
62926;BME280;55732;52.248;-0.844;2022-09-17T04:57:05;101416.73;;;7.45;66.74
62926;BME280;55732;52.248;-0.844;2022-09-17T04:59:30;101417.27;;;7.45;66.92
62926;BME280;55732;52.248;-0.844;2022-09-17T05:01:56;101415.67;;;7.45;66.93
62926;BME280;55732;52.248;-0.844;2022-09-17T05:04:21;101412.32;;;7.44;66.90
62926;BME280;55732;52.248;-0.844;2022-09-17T05:06:47;101410.55;;;7.43;67.00
62926;BME280;55732;52.248;-0.844;2022-09-17T05:09:12;101413.88;;;7.42;67.11
62926;BME280;55732;52.248;-0.844;2022-09-17T05:11:38;101414.86;;;7.39;67.18
62926;BME280;55732;52.248;-0.844;2022-09-17T05:14:04;101413.90;;;7.37;67.34
62926;BME280;55732;52.248;-0.844;2022-09-17T05:16:29;101417.11;;;7.33;67.33
62926;BME280;55732;52.248;-0.844;2022-09-17T05:18:54;101414.28;;;7.31;67.39
62926;BME280;55732;52.248;-0.844;2022-09-17T05:21:20;101416.30;;;7.28;67.53
62926;BME280;55732;52.248;-0.844;2022-09-17T05:23:46;101414.97;;;7.23;67.51
62926;BME280;55732;52.248;-0.844;2022-09-17T05:26:12;101410.35;;;7.21;67.47
62926;BME280;55732;52.248;-0.844;2022-09-17T05:28:38;101407.23;;;7.15;67.76
62926;BME280;55732;52.248;-0.844;2022-09-17T05:31:04;101411.91;;;7.13;67.90
62926;BME280;55732;52.248;-0.844;2022-09-17T05:33:29;101413.02;;;7.10;67.75
62926;BME280;55732;52.248;-0.844;2022-09-17T05:35:55;101415.77;;;7.07;67.93
62926;BME280;55732;52.248;-0.844;2022-09-17T05:38:21;101414.46;;;7.04;68.07
62926;BME280;55732;52.248;-0.844;2022-09-17T05:40:46;101413.83;;;7.00;68.32
62926;BME280;55732;52.248;-0.844;2022-09-17T05:43:13;101416.55;;;6.97;68.32
62926;BME280;55732;52.248;-0.844;2022-09-17T05:45:39;101418.77;;;6.94;68.37
62926;BME280;55732;52.248;-0.844;2022-09-17T05:48:11;101417.34;;;6.94;68.54
62926;BME280;55732;52.248;-0.844;2022-09-17T05:50:37;101414.20;;;6.94;68.55
62926;BME280;55732;52.248;-0.844;2022-09-17T05:53:09;101416.23;;;6.98;68.60
62926;BME280;55732;52.248;-0.844;2022-09-17T05:55:35;101413.95;;;7.04;68.40
62926;BME280;55732;52.248;-0.844;2022-09-17T05:58:10;101420.17;;;7.15;68.49
62926;BME280;55732;52.248;-0.844;2022-09-17T06:00:37;101421.70;;;7.69;67.94
62926;BME280;55732;52.248;-0.844;2022-09-17T06:03:02;101421.38;;;8.57;66.58
62926;BME280;55732;52.248;-0.844;2022-09-17T06:05:28;101421.98;;;9.44;64.93
62926;BME280;55732;52.248;-0.844;2022-09-17T06:07:53;101420.42;;;10.02;63.69
62926;BME280;55732;52.248;-0.844;2022-09-17T06:10:19;101420.73;;;10.35;62.90
62926;BME280;55732;52.248;-0.844;2022-09-17T06:12:44;101416.64;;;10.59;61.77
62926;BME280;55732;52.248;-0.844;2022-09-17T06:15:09;101419.47;;;10.46;61.77
62926;BME280;55732;52.248;-0.844;2022-09-17T06:17:39;101421.43;;;10.35;61.65
62926;BME280;55732;52.248;-0.844;2022-09-17T06:20:05;101424.16;;;10.55;61.26
62926;BME280;55732;52.248;-0.844;2022-09-17T06:22:31;101428.85;;;10.65;60.66
62926;BME280;55732;52.248;-0.844;2022-09-17T06:24:57;101425.52;;;10.81;60.30
62926;BME280;55732;52.248;-0.844;2022-09-17T06:27:31;101424.27;;;11.30;59.56
62926;BME280;55732;52.248;-0.844;2022-09-17T06:29:58;101418.80;;;11.50;58.64
62926;BME280;55732;52.248;-0.844;2022-09-17T06:32:24;101416.18;;;11.33;59.02
62926;BME280;55732;52.248;-0.844;2022-09-17T06:34:49;101415.15;;;11.17;59.25
62926;BME280;55732;52.248;-0.844;2022-09-17T06:37:15;101419.71;;;10.97;59.30
62926;BME280;55732;52.248;-0.844;2022-09-17T06:39:41;101425.46;;;10.76;59.56
62926;BME280;55732;52.248;-0.844;2022-09-17T06:42:06;101425.02;;;10.54;59.72
62926;BME280;55732;52.248;-0.844;2022-09-17T06:44:32;101428.73;;;10.41;59.88
62926;BME280;55732;52.248;-0.844;2022-09-17T06:46:57;101432.38;;;10.52;59.81
62926;BME280;55732;52.248;-0.844;2022-09-17T06:49:23;101431.02;;;11.59;58.51
62926;BME280;55732;52.248;-0.844;2022-09-17T06:51:48;101424.05;;;13.11;56.05
62926;BME280;55732;52.248;-0.844;2022-09-17T06:54:15;101422.00;;;14.87;53.13
62926;BME280;55732;52.248;-0.844;2022-09-17T06:56:40;101421.73;;;16.75;49.95
62926;BME280;55732;52.248;-0.844;2022-09-17T06:59:05;101419.02;;;18.31;47.04
62926;BME280;55732;52.248;-0.844;2022-09-17T07:01:31;101419.35;;;19.47;44.94
62926;BME280;55732;52.248;-0.844;2022-09-17T07:03:57;101421.20;;;20.77;43.01
62926;BME280;55732;52.248;-0.844;2022-09-17T07:06:22;101421.23;;;22.08;40.54
62926;BME280;55732;52.248;-0.844;2022-09-17T07:08:48;101421.98;;;23.52;38.32
62926;BME280;55732;52.248;-0.844;2022-09-17T07:11:14;101419.98;;;24.87;36.30
62926;BME280;55732;52.248;-0.844;2022-09-17T07:13:40;101422.60;;;26.19;34.04
62926;BME280;55732;52.248;-0.844;2022-09-17T07:16:06;101423.81;;;27.47;32.42
62926;BME280;55732;52.248;-0.844;2022-09-17T07:18:32;101420.71;;;28.55;30.58
62926;BME280;55732;52.248;-0.844;2022-09-17T07:21:00;101424.63;;;29.43;29.46
62926;BME280;55732;52.248;-0.844;2022-09-17T07:23:28;101426.05;;;30.16;27.91
62926;BME280;55732;52.248;-0.844;2022-09-17T07:25:55;101425.22;;;30.91;26.76
62926;BME280;55732;52.248;-0.844;2022-09-17T07:28:21;101428.11;;;31.69;25.67
62926;BME280;55732;52.248;-0.844;2022-09-17T07:30:48;101423.81;;;32.43;24.59
62926;BME280;55732;52.248;-0.844;2022-09-17T07:33:15;101421.30;;;33.15;23.82
62926;BME280;55732;52.248;-0.844;2022-09-17T07:35:42;101424.81;;;33.75;22.89
62926;BME280;55732;52.248;-0.844;2022-09-17T07:38:07;101429.95;;;34.31;22.07
62926;BME280;55732;52.248;-0.844;2022-09-17T07:40:33;101429.04;;;34.75;21.39
62926;BME280;55732;52.248;-0.844;2022-09-17T07:42:58;101428.27;;;34.99;20.95
62926;BME280;55732;52.248;-0.844;2022-09-17T07:45:24;101428.29;;;35.43;20.42
62926;BME280;55732;52.248;-0.844;2022-09-17T07:47:49;101426.45;;;35.69;19.08
62926;BME280;55732;52.248;-0.844;2022-09-17T07:50:15;101427.70;;;35.69;19.69
62926;BME280;55732;52.248;-0.844;2022-09-17T07:52:47;101431.03;;;36.02;19.30
62926;BME280;55732;52.248;-0.844;2022-09-17T07:55:14;101428.11;;;36.55;18.81
62926;BME280;55732;52.248;-0.844;2022-09-17T07:57:40;101420.77;;;37.00;18.59
62926;BME280;55732;52.248;-0.844;2022-09-17T08:00:06;101418.14;;;37.15;17.67
62926;BME280;55732;52.248;-0.844;2022-09-17T08:02:32;101418.25;;;37.08;17.86
62926;BME280;55732;52.248;-0.844;2022-09-17T08:04:57;101421.02;;;37.21;17.46
62926;BME280;55732;52.248;-0.844;2022-09-17T08:07:23;101421.04;;;37.46;17.21
62926;BME280;55732;52.248;-0.844;2022-09-17T08:09:49;101421.02;;;37.59;16.70
62926;BME280;55732;52.248;-0.844;2022-09-17T08:12:14;101420.80;;;37.47;16.64
62926;BME280;55732;52.248;-0.844;2022-09-17T08:14:42;101420.77;;;37.54;16.76
62926;BME280;55732;52.248;-0.844;2022-09-17T08:17:08;101421.66;;;37.93;16.70
62926;BME280;55732;52.248;-0.844;2022-09-17T08:19:33;101420.43;;;38.28;16.33
62926;BME280;55732;52.248;-0.844;2022-09-17T08:21:59;101416.14;;;38.46;15.84
62926;BME280;55732;52.248;-0.844;2022-09-17T08:24:25;101417.90;;;38.70;15.57
62926;BME280;55732;52.248;-0.844;2022-09-17T08:26:50;101419.92;;;38.73;15.31
62926;BME280;55732;52.248;-0.844;2022-09-17T08:29:16;101414.85;;;38.22;14.55
62926;BME280;55732;52.248;-0.844;2022-09-17T08:31:41;101416.45;;;37.66;14.96
62926;BME280;55732;52.248;-0.844;2022-09-17T08:34:08;101417.69;;;37.55;15.01
62926;BME280;55732;52.248;-0.844;2022-09-17T08:36:34;101414.52;;;37.49;14.90
62926;BME280;55732;52.248;-0.844;2022-09-17T08:38:59;101413.09;;;37.12;14.86
62926;BME280;55732;52.248;-0.844;2022-09-17T08:46:32;101419.89;;;35.96;15.16
62926;BME280;55732;52.248;-0.844;2022-09-17T08:49:15;101421.07;;;35.60;15.16
62926;BME280;55732;52.248;-0.844;2022-09-17T09:00:25;101421.86;;;35.40;15.92
62926;BME280;55732;52.248;-0.844;2022-09-17T09:05:50;101434.90;;;35.79;15.65
62926;BME280;55732;52.248;-0.844;2022-09-17T09:08:28;101436.08;;;35.72;15.32
62926;BME280;55732;52.248;-0.844;2022-09-17T09:10:57;101433.80;;;35.11;15.77
62926;BME280;55732;52.248;-0.844;2022-09-17T09:13:28;101437.20;;;33.15;17.20
62926;BME280;55732;52.248;-0.844;2022-09-17T09:16:04;101437.23;;;30.54;18.82
62926;BME280;55732;52.248;-0.844;2022-09-17T09:18:35;101437.06;;;29.39;19.84
62926;BME280;55732;52.248;-0.844;2022-09-17T09:26:18;101427.13;;;30.75;18.74
62926;BME280;55732;52.248;-0.844;2022-09-17T09:31:27;101432.68;;;31.55;18.32
62926;BME280;55732;52.248;-0.844;2022-09-17T09:33:57;101428.44;;;32.01;18.15
62926;BME280;55732;52.248;-0.844;2022-09-17T09:36:27;101427.02;;;32.60;17.78
62926;BME280;55732;52.248;-0.844;2022-09-17T09:39:21;101423.62;;;32.73;17.12
62926;BME280;55732;52.248;-0.844;2022-09-17T09:41:55;101432.48;;;31.52;17.59
62926;BME280;55732;52.248;-0.844;2022-09-17T09:44:23;101430.47;;;30.96;17.95
62926;BME280;55732;52.248;-0.844;2022-09-17T09:52:32;101424.90;;;30.22;19.04
62926;BME280;55732;52.248;-0.844;2022-09-17T09:55:21;101426.60;;;30.13;18.81
62926;BME280;55732;52.248;-0.844;2022-09-17T10:00:41;101422.52;;;30.07;19.21
62926;BME280;55732;52.248;-0.844;2022-09-17T10:03:30;101420.59;;;30.44;19.53
62926;BME280;55732;52.248;-0.844;2022-09-17T10:05:57;101421.95;;;30.89;19.15
62926;BME280;55732;52.248;-0.844;2022-09-17T10:08:24;101421.34;;;30.89;19.07
62926;BME280;55732;52.248;-0.844;2022-09-17T10:11:00;101416.48;;;30.91;19.21
62926;BME280;55732;52.248;-0.844;2022-09-17T10:13:32;101409.52;;;30.87;19.11
62926;BME280;55732;52.248;-0.844;2022-09-17T10:18:46;101407.02;;;29.30;20.23
62926;BME280;55732;52.248;-0.844;2022-09-17T10:21:31;101405.73;;;28.94;20.68
62926;BME280;55732;52.248;-0.844;2022-09-17T10:23:59;101407.16;;;28.26;21.48
62926;BME280;55732;52.248;-0.844;2022-09-17T10:26:31;101414.06;;;27.12;22.33
62926;BME280;55732;52.248;-0.844;2022-09-17T10:29:00;101408.70;;;26.96;22.44
62926;BME280;55732;52.248;-0.844;2022-09-17T10:31:26;101404.00;;;26.96;22.59
62926;BME280;55732;52.248;-0.844;2022-09-17T10:34:01;101401.49;;;26.75;23.00
62926;BME280;55732;52.248;-0.844;2022-09-17T10:39:37;101408.41;;;25.69;24.00
62926;BME280;55732;52.248;-0.844;2022-09-17T10:42:16;101409.00;;;25.50;24.44
62926;BME280;55732;52.248;-0.844;2022-09-17T10:44:58;101411.70;;;24.67;25.45
62926;BME280;55732;52.248;-0.844;2022-09-17T10:49:59;101410.98;;;22.09;28.71
62926;BME280;55732;52.248;-0.844;2022-09-17T10:52:29;101406.88;;;21.24;29.66
62926;BME280;55732;52.248;-0.844;2022-09-17T11:14:32;101387.87;;;18.47;34.97
62926;BME280;55732;52.248;-0.844;2022-09-17T11:23:40;101372.65;;;18.32;35.53
62926;BME280;55732;52.248;-0.844;2022-09-17T11:26:47;101376.71;;;18.35;35.61
62926;BME280;55732;52.248;-0.844;2022-09-17T11:29:48;101367.88;;;18.39;35.25
62926;BME280;55732;52.248;-0.844;2022-09-17T11:32:51;101367.61;;;18.27;35.62
62926;BME280;55732;52.248;-0.844;2022-09-17T11:35:29;101365.36;;;18.15;35.64
62926;BME280;55732;52.248;-0.844;2022-09-17T11:40:50;101369.27;;;18.05;36.05
62926;BME280;55732;52.248;-0.844;2022-09-17T11:43:26;101359.70;;;18.13;35.92
62926;BME280;55732;52.248;-0.844;2022-09-17T11:53:50;101354.49;;;18.23;36.32
62926;BME280;55732;52.248;-0.844;2022-09-17T11:56:40;101353.95;;;18.32;36.25
62926;BME280;55732;52.248;-0.844;2022-09-17T12:01:55;101351.52;;;18.37;36.28
62926;BME280;55732;52.248;-0.844;2022-09-17T12:04:46;101349.96;;;18.51;36.28
62926;BME280;55732;52.248;-0.844;2022-09-17T12:07:53;101353.38;;;18.60;35.86
62926;BME280;55732;52.248;-0.844;2022-09-17T12:10:33;101354.97;;;18.60;35.82
62926;BME280;55732;52.248;-0.844;2022-09-17T12:16:42;101347.86;;;18.41;36.05
62926;BME280;55732;52.248;-0.844;2022-09-17T12:21:14;101353.29;;;18.37;35.85
62926;BME280;55732;52.248;-0.844;2022-09-17T12:24:06;101348.67;;;18.29;36.25
62926;BME280;55732;52.248;-0.844;2022-09-17T12:35:13;101338.41;;;18.42;36.28
62926;BME280;55732;52.248;-0.844;2022-09-17T12:43:04;101339.91;;;18.46;36.47
62926;BME280;55732;52.248;-0.844;2022-09-17T12:52:03;101328.37;;;18.27;36.90
62926;BME280;55732;52.248;-0.844;2022-09-17T12:54:57;101341.34;;;18.38;36.58
62926;BME280;55732;52.248;-0.844;2022-09-17T12:58:04;101334.73;;;18.47;36.58
62926;BME280;55732;52.248;-0.844;2022-09-17T13:00:58;101326.69;;;18.56;36.71
62926;BME280;55732;52.248;-0.844;2022-09-17T13:03:29;101335.89;;;18.68;36.66
62926;BME280;55732;52.248;-0.844;2022-09-17T13:06:36;101336.82;;;18.74;36.59
62926;BME280;55732;52.248;-0.844;2022-09-17T13:20:20;101322.02;;;18.49;36.79
62926;BME280;55732;52.248;-0.844;2022-09-17T13:22:49;101327.51;;;18.61;36.42
62926;BME280;55732;52.248;-0.844;2022-09-17T13:25:18;101321.67;;;18.57;36.16
62926;BME280;55732;52.248;-0.844;2022-09-17T13:27:45;101318.29;;;18.65;36.07
62926;BME280;55732;52.248;-0.844;2022-09-17T13:30:13;101316.94;;;18.78;35.92
62926;BME280;55732;52.248;-0.844;2022-09-17T13:37:32;101323.36;;;19.00;35.06
62926;BME280;55732;52.248;-0.844;2022-09-17T13:40:00;101313.37;;;19.00;35.11
62926;BME280;55732;52.248;-0.844;2022-09-17T13:42:30;101317.75;;;19.11;34.92
62926;BME280;55732;52.248;-0.844;2022-09-17T13:45:11;101323.05;;;19.06;34.14
62926;BME280;55732;52.248;-0.844;2022-09-17T13:48:07;101312.98;;;18.94;34.41
62926;BME280;55732;52.248;-0.844;2022-09-17T13:50:39;101316.59;;;18.69;34.53
62926;BME280;55732;52.248;-0.844;2022-09-17T13:55:37;101306.86;;;18.82;34.74
62926;BME280;55732;52.248;-0.844;2022-09-17T14:13:49;101315.64;;;19.17;33.46
62926;BME280;55732;52.248;-0.844;2022-09-17T14:22:00;101306.55;;;19.16;33.21
62926;BME280;55732;52.248;-0.844;2022-09-17T14:30:19;101298.91;;;18.86;33.04
62926;BME280;55732;52.248;-0.844;2022-09-17T14:38:06;101310.13;;;18.87;32.57
62926;BME280;55732;52.248;-0.844;2022-09-17T14:40:33;101308.81;;;18.82;33.05
62926;BME280;55732;52.248;-0.844;2022-09-17T14:43:00;101308.08;;;18.83;32.69
62926;BME280;55732;52.248;-0.844;2022-09-17T14:45:30;101304.94;;;18.79;32.71
62926;BME280;55732;52.248;-0.844;2022-09-17T14:50:45;101305.98;;;18.74;32.72
62926;BME280;55732;52.248;-0.844;2022-09-17T14:53:14;101301.42;;;18.69;32.72
62926;BME280;55732;52.248;-0.844;2022-09-17T14:55:41;101301.45;;;18.60;32.79
62926;BME280;55732;52.248;-0.844;2022-09-17T14:58:26;101295.67;;;18.54;33.22
62926;BME280;55732;52.248;-0.844;2022-09-17T15:00:53;101292.23;;;18.56;33.01
62926;BME280;55732;52.248;-0.844;2022-09-17T15:03:23;101301.34;;;18.56;33.46
62926;BME280;55732;52.248;-0.844;2022-09-17T15:05:48;101299.05;;;18.55;33.59
62926;BME280;55732;52.248;-0.844;2022-09-17T15:08:22;101291.73;;;18.55;33.39
62926;BME280;55732;52.248;-0.844;2022-09-17T15:11:01;101287.39;;;18.60;33.49
62926;BME280;55732;52.248;-0.844;2022-09-17T15:13:29;101286.80;;;18.63;33.59
62926;BME280;55732;52.248;-0.844;2022-09-17T15:16:03;101294.52;;;18.59;33.51
62926;BME280;55732;52.248;-0.844;2022-09-17T15:18:35;101289.88;;;18.43;33.36
62926;BME280;55732;52.248;-0.844;2022-09-17T15:21:03;101292.04;;;18.41;33.58
62926;BME280;55732;52.248;-0.844;2022-09-17T15:23:32;101295.62;;;18.41;33.61
62926;BME280;55732;52.248;-0.844;2022-09-17T15:25:59;101289.90;;;18.34;33.64
62926;BME280;55732;52.248;-0.844;2022-09-17T15:28:41;101292.35;;;18.28;33.97
62926;BME280;55732;52.248;-0.844;2022-09-17T15:31:18;101284.27;;;18.22;34.36
62926;BME280;55732;52.248;-0.844;2022-09-17T15:33:44;101289.38;;;18.26;34.27
62926;BME280;55732;52.248;-0.844;2022-09-17T15:38:47;101287.23;;;18.26;34.40
62926;BME280;55732;52.248;-0.844;2022-09-17T15:41:33;101286.09;;;18.20;34.47
62926;BME280;55732;52.248;-0.844;2022-09-17T15:44:20;101278.80;;;18.19;34.47
62926;BME280;55732;52.248;-0.844;2022-09-17T15:46:47;101278.40;;;18.13;34.41
62926;BME280;55732;52.248;-0.844;2022-09-17T15:49:30;101275.96;;;18.11;34.50
62926;BME280;55732;52.248;-0.844;2022-09-17T15:52:25;101276.52;;;18.10;34.74
62926;BME280;55732;52.248;-0.844;2022-09-17T15:54:52;101282.73;;;18.11;34.48
62926;BME280;55732;52.248;-0.844;2022-09-17T15:57:20;101280.53;;;18.05;34.50
62926;BME280;55732;52.248;-0.844;2022-09-17T15:59:47;101277.97;;;17.91;34.95
62926;BME280;55732;52.248;-0.844;2022-09-17T16:02:30;101276.16;;;17.84;35.37
62926;BME280;55732;52.248;-0.844;2022-09-17T16:07:53;101264.77;;;17.66;35.94
62926;BME280;55732;52.248;-0.844;2022-09-17T16:10:18;101259.29;;;17.61;36.17
62926;BME280;55732;52.248;-0.844;2022-09-17T16:12:44;101260.67;;;17.54;36.46
62926;BME280;55732;52.248;-0.844;2022-09-17T16:15:13;101262.35;;;17.50;36.29
62926;BME280;55732;52.248;-0.844;2022-09-17T16:17:44;101267.72;;;17.49;36.41
62926;BME280;55732;52.248;-0.844;2022-09-17T16:20:21;101267.67;;;17.43;36.81
62926;BME280;55732;52.248;-0.844;2022-09-17T16:22:48;101266.53;;;17.37;36.71
62926;BME280;55732;52.248;-0.844;2022-09-17T16:25:15;101268.55;;;17.34;37.36
62926;BME280;55732;52.248;-0.844;2022-09-17T16:27:53;101267.83;;;17.34;37.53